Time;durP1;ratioP1;P1;durP2;ratioP2;P2;SDS_P1;SDS_P2;PMS_P1;PMS_P2;Temp;Humidity;BMP_temperature;BMP_pressure;BME280_temperature;BME280_humidity;BME280_pressure;Samples;Min_cycle;Max_cycle;Signal;HPM_P1;HPM_P2
2022/07/28 00:00:35;;;;;;;5.72;3.50;;;8.90;99.90;;;;;;5028807;28;20072;-83
2022/07/28 00:03:01;;;;;;;6.07;3.33;;;8.80;99.90;;;;;;5031820;28;20120;-83
2022/07/28 00:05:27;;;;;;;4.47;2.97;;;8.90;99.90;;;;;;5010964;28;20033;-83
2022/07/28 00:07:53;;;;;;;3.53;2.80;;;8.90;99.90;;;;;;5016426;28;20037;-83
2022/07/28 00:10:18;;;;;;;3.05;2.70;;;8.90;99.90;;;;;;5026029;28;20039;-83
2022/07/28 00:12:44;;;;;;;4.25;2.63;;;8.80;99.90;;;;;;5026773;28;20124;-83
2022/07/28 00:15:10;;;;;;;3.60;2.95;;;8.80;99.90;;;;;;5030650;28;20147;-83
2022/07/28 00:17:36;;;;;;;3.08;2.58;;;8.80;99.90;;;;;;5027296;28;20037;-83
2022/07/28 00:20:03;;;;;;;3.25;2.60;;;8.80;99.90;;;;;;5030797;28;20483;-83
2022/07/28 00:22:29;;;;;;;4.00;3.25;;;8.80;99.90;;;;;;5028688;28;20041;-82
2022/07/28 00:24:54;;;;;;;4.85;2.78;;;8.70;99.90;;;;;;5007218;28;20048;-83
2022/07/28 00:27:20;;;;;;;4.22;2.75;;;8.70;99.90;;;;;;5024596;28;20375;-83
2022/07/28 00:29:46;;;;;;;3.95;2.92;;;8.70;99.90;;;;;;5021831;28;20051;-82
2022/07/28 00:32:11;;;;;;;4.65;2.90;;;8.70;99.90;;;;;;5031467;28;20040;-82
2022/07/28 00:34:37;;;;;;;3.35;3.05;;;8.70;99.90;;;;;;5018107;28;20044;-82
2022/07/28 00:37:03;;;;;;;5.70;2.90;;;8.60;99.90;;;;;;4999319;28;20037;-82
2022/07/28 00:39:28;;;;;;;3.58;3.00;;;8.70;99.90;;;;;;5008445;28;20035;-82
2022/07/28 00:41:54;;;;;;;4.82;2.92;;;8.70;99.90;;;;;;5050185;28;20478;-82
2022/07/28 00:44:19;;;;;;;3.80;3.10;;;8.70;99.90;;;;;;5030412;28;20047;-82
2022/07/28 00:46:45;;;;;;;4.88;2.97;;;8.70;99.90;;;;;;5039117;28;20048;-82
2022/07/28 00:49:13;;;;;;;3.90;3.25;;;8.70;99.90;;;;;;5039649;28;20128;-82
2022/07/28 00:51:39;;;;;;;4.07;3.40;;;8.70;99.90;;;;;;5012832;28;20041;-83
2022/07/28 00:54:05;;;;;;;4.40;3.03;;;8.70;99.90;;;;;;5020182;28;20079;-82
2022/07/28 00:56:31;;;;;;;7.28;3.55;;;8.70;99.90;;;;;;5035414;28;20119;-83
2022/07/28 00:58:57;;;;;;;4.40;3.20;;;8.60;99.90;;;;;;5017122;28;21073;-83
2022/07/28 01:01:23;;;;;;;4.13;3.00;;;8.70;99.90;;;;;;5017897;28;20036;-83
2022/07/28 01:03:58;;;;;;;3.20;2.88;;;8.70;99.90;;;;;;5037787;28;20044;-83
2022/07/28 01:06:35;;;;;;;3.65;2.67;;;8.60;99.90;;;;;;5046854;28;20041;-83
2022/07/28 01:09:10;;;;;;;3.45;2.97;;;8.60;99.90;;;;;;5033016;28;20033;-83
2022/07/28 01:11:59;;;;;;;3.55;3.05;;;8.60;99.90;;;;;;5026659;28;20560;-84
2022/07/28 01:14:38;;;;;;;3.38;2.90;;;8.60;99.90;;;;;;5023472;28;20033;-84
2022/07/28 01:17:25;;;;;;;4.60;3.03;;;8.60;99.90;;;;;;5016216;28;20045;-84
2022/07/28 01:20:08;;;;;;;3.58;2.58;;;8.60;99.90;;;;;;5044812;28;20033;-83
2022/07/28 01:22:40;;;;;;;4.07;3.47;;;8.60;99.90;;;;;;5012053;28;20029;-83
2022/07/28 01:25:31;;;;;;;4.35;2.83;;;8.60;99.90;;;;;;4998874;28;20076;-84
2022/07/28 01:28:15;;;;;;;4.60;3.50;;;8.60;99.90;;;;;;5014738;28;20060;-83
2022/07/28 01:30:43;;;;;;;7.10;3.38;;;8.60;99.90;;;;;;5016189;28;20033;-84
2022/07/28 01:33:17;;;;;;;4.88;3.30;;;8.50;99.90;;;;;;5040309;28;20040;-83
2022/07/28 01:35:50;;;;;;;4.38;3.08;;;8.50;99.90;;;;;;5028019;28;20503;-84
2022/07/28 01:38:18;;;;;;;4.03;2.88;;;8.60;99.90;;;;;;5031101;28;20520;-83
2022/07/28 01:40:45;;;;;;;4.35;3.42;;;8.60;99.90;;;;;;5044153;28;20075;-84
2022/07/28 01:43:16;;;;;;;4.38;3.10;;;8.60;99.90;;;;;;5038917;28;20068;-83
2022/07/28 01:45:44;;;;;;;4.50;3.30;;;8.50;99.90;;;;;;5027906;28;20487;-84
2022/07/28 01:48:11;;;;;;;4.20;3.42;;;8.50;99.90;;;;;;5046538;28;20091;-83
2022/07/28 01:50:38;;;;;;;4.80;3.17;;;8.50;99.90;;;;;;5030487;28;20040;-84
2022/07/28 01:53:07;;;;;;;4.63;3.00;;;8.50;99.90;;;;;;5030635;28;20546;-84
2022/07/28 01:55:33;;;;;;;4.32;2.85;;;8.50;99.90;;;;;;5054253;28;20072;-84
2022/07/28 01:58:01;;;;;;;4.60;3.10;;;8.50;99.90;;;;;;5037350;28;20548;-83
2022/07/28 02:00:27;;;;;;;5.60;3.50;;;8.50;99.90;;;;;;5016501;28;20070;-84
2022/07/28 02:02:54;;;;;;;4.95;3.80;;;8.50;99.90;;;;;;5046635;28;20116;-84
2022/07/28 02:05:22;;;;;;;6.15;3.72;;;8.50;99.90;;;;;;5027777;28;20061;-83
2022/07/28 02:07:49;;;;;;;5.10;3.78;;;8.50;99.90;;;;;;5026973;28;20036;-83
2022/07/28 02:10:17;;;;;;;5.25;3.10;;;8.50;99.90;;;;;;5021885;28;20320;-83
2022/07/28 02:12:45;;;;;;;3.97;3.40;;;8.50;99.90;;;;;;5016578;28;20036;-84
2022/07/28 02:15:12;;;;;;;4.22;3.55;;;8.50;99.90;;;;;;5045473;28;20368;-84
2022/07/28 02:17:41;;;;;;;5.18;3.20;;;8.50;99.90;;;;;;5026373;28;20029;-84
2022/07/28 02:20:09;;;;;;;3.58;3.10;;;8.50;99.90;;;;;;5022688;28;20029;-84
2022/07/28 02:22:38;;;;;;;4.68;3.20;;;8.40;99.90;;;;;;5018164;28;20399;-82
2022/07/28 02:25:04;;;;;;;3.42;3.03;;;8.40;99.90;;;;;;5017900;28;20041;-82
2022/07/28 02:27:55;;;;;;;3.38;2.92;;;8.40;99.90;;;;;;5017427;28;20522;-83
2022/07/28 02:30:29;;;;;;;4.10;3.55;;;8.40;99.90;;;;;;5008621;28;20029;-83
2022/07/28 02:32:58;;;;;;;3.72;3.05;;;8.30;99.90;;;;;;5017103;28;20037;-82
2022/07/28 02:35:39;;;;;;;4.97;3.28;;;8.30;99.90;;;;;;5025978;28;20037;-82
2022/07/28 02:38:10;;;;;;;4.15;2.95;;;8.30;99.90;;;;;;5029706;28;20487;-82
2022/07/28 02:40:39;;;;;;;3.00;2.70;;;8.20;99.90;;;;;;5019355;28;20037;-82
2022/07/28 02:43:09;;;;;;;4.80;3.15;;;8.20;99.90;;;;;;5045223;28;20119;-82
2022/07/28 02:45:38;;;;;;;4.00;2.85;;;8.10;99.90;;;;;;5027001;28;20460;-83
2022/07/28 02:48:09;;;;;;;3.83;3.22;;;8.10;99.90;;;;;;5028592;28;20037;-83
2022/07/28 02:50:35;;;;;;;3.35;3.00;;;8.10;99.90;;;;;;5013793;28;20122;-82
2022/07/28 02:53:02;;;;;;;3.45;2.80;;;8.00;99.90;;;;;;5029244;28;20129;-83
2022/07/28 02:55:29;;;;;;;3.00;2.70;;;8.00;99.90;;;;;;5037594;28;20032;-83
2022/07/28 02:57:57;;;;;;;3.90;3.30;;;8.10;99.90;;;;;;5028817;28;20041;-82
2022/07/28 03:00:24;;;;;;;3.25;2.95;;;8.00;99.90;;;;;;5033475;28;20548;-83
2022/07/28 03:02:50;;;;;;;4.50;3.30;;;8.00;99.90;;;;;;5042277;28;20041;-83
2022/07/28 03:05:16;;;;;;;4.32;3.15;;;7.90;99.90;;;;;;5017194;28;20048;-83
2022/07/28 03:07:43;;;;;;;3.20;2.90;;;7.90;99.90;;;;;;5014857;28;20044;-83
2022/07/28 03:10:24;;;;;;;3.70;3.10;;;7.90;99.90;;;;;;5010817;28;20455;-83
2022/07/28 03:12:51;;;;;;;4.38;3.38;;;7.90;99.90;;;;;;5029500;28;20093;-82
2022/07/28 03:15:17;;;;;;;4.63;3.65;;;7.90;99.90;;;;;;5031919;28;20036;-82
2022/07/28 03:17:42;;;;;;;3.22;2.92;;;7.80;99.90;;;;;;5028896;28;20052;-82
2022/07/28 03:20:09;;;;;;;6.15;3.92;;;7.80;99.90;;;;;;5010339;28;20099;-82
2022/07/28 03:22:35;;;;;;;4.28;3.30;;;7.80;99.90;;;;;;5017256;28;20039;-82
2022/07/28 03:25:05;;;;;;;4.47;3.15;;;7.80;99.90;;;;;;5036479;28;20360;-83
2022/07/28 03:27:36;;;;;;;3.47;2.97;;;7.80;99.90;;;;;;5044328;28;20092;-82
2022/07/28 03:30:26;;;;;;;3.40;3.10;;;7.70;99.90;;;;;;5025721;28;20415;-83
2022/07/28 03:32:59;;;;;;;3.83;3.30;;;7.70;99.90;;;;;;5032214;28;20479;-83
2022/07/28 03:35:26;;;;;;;3.72;3.33;;;7.70;99.90;;;;;;5040678;28;20040;-82
2022/07/28 03:38:19;;;;;;;4.20;3.40;;;7.70;99.90;;;;;;5030309;28;20484;-82
2022/07/28 03:40:46;;;;;;;6.30;4.15;;;7.70;99.90;;;;;;5019397;28;20037;-82
2022/07/28 03:43:15;;;;;;;4.85;3.70;;;7.70;99.90;;;;;;5031917;28;20032;-83
2022/07/28 03:45:41;;;;;;;4.20;3.58;;;7.70;99.90;;;;;;5056712;28;20414;-82
2022/07/28 03:48:06;;;;;;;4.85;4.35;;;7.70;99.90;;;;;;5048172;28;20032;-82
2022/07/28 03:50:33;;;;;;;5.10;3.30;;;7.70;99.90;;;;;;5020407;28;20036;-83
2022/07/28 03:53:01;;;;;;;5.25;3.60;;;7.70;99.90;;;;;;5032349;28;20047;-82
2022/07/28 03:55:27;;;;;;;4.32;3.45;;;7.70;99.90;;;;;;5028275;28;20029;-82
2022/07/28 03:57:53;;;;;;;5.72;3.42;;;7.70;99.90;;;;;;5030010;28;20083;-82
2022/07/28 04:00:19;;;;;;;5.07;3.60;;;7.60;99.90;;;;;;5007469;28;20066;-82
2022/07/28 04:02:46;;;;;;;3.47;3.08;;;7.60;99.90;;;;;;5044767;28;20025;-82
2022/07/28 04:05:13;;;;;;;4.47;3.60;;;7.60;99.90;;;;;;5027327;28;20116;-82
2022/07/28 04:07:40;;;;;;;4.15;3.45;;;7.60;99.90;;;;;;5044908;28;20033;-82
2022/07/28 04:10:10;;;;;;;4.43;3.45;;;7.60;99.90;;;;;;5025068;28;20043;-83
2022/07/28 04:12:54;;;;;;;5.32;3.70;;;7.60;99.90;;;;;;5028880;28;20088;-83
2022/07/28 04:15:21;;;;;;;4.70;3.85;;;7.50;99.90;;;;;;5056343;28;20051;-83
2022/07/28 04:17:48;;;;;;;4.80;3.40;;;7.50;99.90;;;;;;5031847;28;20406;-84
2022/07/28 04:20:15;;;;;;;4.07;3.45;;;7.50;99.90;;;;;;5039431;28;20036;-83
2022/07/28 04:22:42;;;;;;;4.85;3.38;;;7.50;99.90;;;;;;5036246;28;20490;-84
2022/07/28 04:25:08;;;;;;;4.18;3.47;;;7.50;99.90;;;;;;5019745;28;20033;-82
2022/07/28 04:27:36;;;;;;;4.57;3.47;;;7.50;99.90;;;;;;5018352;28;20039;-83
2022/07/28 04:30:12;;;;;;;3.50;2.85;;;7.50;99.90;;;;;;5010451;28;20076;-82
2022/07/28 04:32:38;;;;;;;3.35;2.90;;;7.50;99.90;;;;;;5028966;28;20033;-82
2022/07/28 04:35:05;;;;;;;4.07;3.20;;;7.50;99.90;;;;;;5038495;28;20044;-82
2022/07/28 04:37:31;;;;;;;6.05;3.92;;;7.50;99.90;;;;;;5036215;28;20127;-82
2022/07/28 04:39:56;;;;;;;4.20;3.50;;;7.50;99.90;;;;;;5024409;28;20243;-82
2022/07/28 04:42:22;;;;;;;5.13;3.78;;;7.50;99.90;;;;;;5027606;28;20032;-82
2022/07/28 04:44:47;;;;;;;5.10;3.70;;;7.50;99.90;;;;;;5054928;28;20037;-82
2022/07/28 04:47:13;;;;;;;4.13;3.47;;;7.60;99.90;;;;;;5009983;28;20118;-83
2022/07/28 04:49:39;;;;;;;5.63;3.75;;;7.60;99.90;;;;;;5026687;28;20032;-83
2022/07/28 04:52:07;;;;;;;5.85;4.03;;;7.70;99.90;;;;;;5028225;28;20123;-83
2022/07/28 04:54:35;;;;;;;6.85;4.13;;;7.80;99.90;;;;;;5026301;28;20036;-82
2022/07/28 04:57:02;;;;;;;7.93;4.50;;;7.90;99.90;;;;;;5018679;28;20029;-83
2022/07/28 04:59:28;;;;;;;4.93;4.45;;;8.10;99.90;;;;;;5031320;28;20048;-82
2022/07/28 05:01:56;;;;;;;7.18;4.65;;;8.40;99.90;;;;;;5020817;28;20029;-82
2022/07/28 05:04:22;;;;;;;6.35;3.83;;;8.60;99.90;;;;;;5045754;28;20086;-82
2022/07/28 05:06:47;;;;;;;5.85;4.30;;;8.70;99.90;;;;;;5008809;28;20091;-82
2022/07/28 05:09:13;;;;;;;4.82;4.20;;;8.80;99.90;;;;;;5016198;28;20040;-89
2022/07/28 05:11:41;;;;;;;4.20;3.80;;;9.00;99.90;;;;;;5044954;28;20040;-87
2022/07/28 05:14:07;;;;;;;6.95;5.00;;;9.40;99.90;;;;;;5027607;28;20037;-84
2022/07/28 05:16:33;;;;;;;6.97;4.80;;;9.90;99.90;;;;;;5032908;28;20078;-86
2022/07/28 05:18:58;;;;;;;6.38;4.38;;;10.30;99.90;;;;;;5020268;28;20037;-85
2022/07/28 05:21:24;;;;;;;4.28;3.65;;;10.70;99.90;;;;;;5039218;28;20111;-84
2022/07/28 05:23:49;;;;;;;6.10;3.97;;;11.10;99.90;;;;;;5023887;28;20550;-85
2022/07/28 05:26:15;;;;;;;4.03;3.03;;;11.40;99.90;;;;;;5027341;28;20040;-85
2022/07/28 05:37:09;;;;;;;4.28;3.00;;;12.60;99.90;;;;;;5027937;28;20076;-85
2022/07/28 05:39:56;;;;;;;4.00;2.90;;;13.20;99.90;;;;;;5020924;28;20449;-85
2022/07/28 05:42:27;;;;;;;4.80;2.80;;;13.50;99.90;;;;;;5041998;28;20136;-86
2022/07/28 05:44:55;;;;;;;4.60;2.80;;;13.70;99.90;;;;;;5036108;28;20048;-86
2022/07/28 05:47:21;;;;;;;4.68;2.58;;;13.80;99.90;;;;;;5038089;28;20040;-87
2022/07/28 05:49:47;;;;;;;3.47;2.20;;;14.00;99.90;;;;;;5023373;28;20033;-87
2022/07/28 05:52:12;;;;;;;2.83;1.80;;;14.10;99.90;;;;;;5033692;28;20028;-87
2022/07/28 05:54:38;;;;;;;3.78;1.80;;;14.10;99.90;;;;;;5026058;28;20037;-86
2022/07/28 05:57:04;;;;;;;2.05;1.83;;;14.00;99.90;;;;;;5017503;28;20123;-87
2022/07/28 05:59:37;;;;;;;5.78;2.00;;;14.10;99.90;;;;;;5011590;28;20041;-87
2022/07/28 06:02:18;;;;;;;3.58;2.08;;;14.10;99.90;;;;;;5014869;28;20033;-87
2022/07/28 06:05:36;;;;;;;3.28;2.33;;;14.10;99.90;;;;;;5028742;28;20056;-87
2022/07/28 06:08:01;;;;;;;3.95;2.13;;;14.00;99.90;;;;;;5020827;28;20327;-88
2022/07/28 06:10:57;;;;;;;3.25;2.10;;;14.10;99.90;;;;;;5015847;28;20068;-87
2022/07/28 06:13:17;;;;;;;5.38;2.22;;;14.10;99.90;;;;;;5023598;28;20418;-86
2022/07/28 06:15:54;;;;;;;5.45;1.95;;;14.10;99.90;;;;;;5012896;28;20421;-87
2022/07/28 06:19:10;;;;;;;4.65;2.28;;;14.10;99.90;;;;;;5038140;28;20052;-87
2022/07/28 06:55:42;;;;;;;3.67;2.20;;;14.70;99.90;;;;;;5028633;28;20056;-86
2022/07/28 07:02:32;;;;;;;3.80;2.00;;;14.80;99.90;;;;;;4954183;28;20046;-87
2022/07/28 07:08:47;;;;;;;2.00;1.40;;;15.10;99.90;;;;;;4975093;28;20051;-88
2022/07/28 07:11:16;;;;;;;3.42;1.10;;;15.20;99.90;;;;;;4970720;28;20086;-86
2022/07/28 07:14:13;;;;;;;3.65;1.08;;;15.30;99.90;;;;;;4985105;28;20049;-87
2022/07/28 07:17:26;;;;;;;3.33;1.10;;;15.40;99.90;;;;;;4959982;28;20058;-87
2022/07/28 07:19:59;;;;;;;3.13;1.20;;;15.50;99.90;;;;;;4984445;28;20030;-87
2022/07/28 07:22:40;;;;;;;3.70;1.13;;;15.50;99.90;;;;;;4989302;28;20587;-88
2022/07/28 07:25:08;;;;;;;2.55;1.00;;;15.60;99.90;;;;;;4981727;28;20292;-86
2022/07/28 07:27:37;;;;;;;3.42;0.80;;;15.70;99.90;;;;;;4996377;28;20050;-87
2022/07/28 07:30:10;;;;;;;2.78;0.80;;;15.70;99.90;;;;;;4970698;28;20034;-86
2022/07/28 07:32:43;;;;;;;3.60;1.10;;;15.80;99.90;;;;;;4961774;28;20151;-88
2022/07/28 07:35:16;;;;;;;3.75;1.17;;;15.80;99.90;;;;;;4978382;28;20043;-87
2022/07/28 07:37:42;;;;;;;2.88;1.25;;;15.90;99.90;;;;;;4965586;28;20037;-87
2022/07/28 07:40:08;;;;;;;2.50;1.10;;;15.90;99.90;;;;;;4985863;28;20111;-87
2022/07/28 07:42:34;;;;;;;2.65;1.10;;;16.00;99.90;;;;;;4989195;28;20088;-87
2022/07/28 07:45:00;;;;;;;3.05;1.00;;;16.10;99.90;;;;;;4981261;28;20134;-86
2022/07/28 07:47:44;;;;;;;4.68;1.35;;;16.10;99.90;;;;;;4980988;28;20060;-87
2022/07/28 07:50:13;;;;;;;3.88;1.00;;;16.20;99.90;;;;;;4980711;28;20152;-86
2022/07/28 07:53:11;;;;;;;1.52;1.00;;;16.30;99.90;;;;;;4973171;28;20046;-87
2022/07/28 07:55:39;;;;;;;1.75;0.70;;;16.40;99.90;;;;;;4962913;28;20104;-85
2022/07/28 07:58:08;;;;;;;2.70;0.65;;;16.60;99.90;;;;;;4997507;28;20132;-86
2022/07/28 08:00:46;;;;;;;1.92;0.75;;;16.70;99.90;;;;;;4991215;28;20041;-87
2022/07/28 08:03:15;;;;;;;1.25;0.70;;;16.80;99.90;;;;;;4985843;28;20112;-89
2022/07/28 08:06:00;;;;;;;4.95;1.10;;;16.90;99.90;;;;;;4972729;28;20041;-87
2022/07/28 08:08:28;;;;;;;2.00;0.82;;;17.10;99.90;;;;;;4996985;28;20042;-87
2022/07/28 08:11:00;;;;;;;1.65;0.60;;;17.20;99.90;;;;;;4987864;28;20041;-87
2022/07/28 08:13:28;;;;;;;4.72;0.93;;;17.30;99.90;;;;;;4988790;28;20046;-87
2022/07/28 08:16:06;;;;;;;1.77;0.70;;;17.50;99.20;;;;;;4996977;28;20179;-87
2022/07/28 08:18:32;;;;;;;1.02;0.60;;;17.60;99.40;;;;;;4996526;28;20408;-86
2022/07/28 08:20:57;;;;;;;1.35;0.60;;;18.00;97.20;;;;;;4989579;28;20034;-86
2022/07/28 08:23:23;;;;;;;1.60;0.60;;;18.40;95.50;;;;;;4991098;28;20042;-87
2022/07/28 08:25:49;;;;;;;1.23;0.50;;;18.70;94.10;;;;;;4988679;28;20045;-85
2022/07/28 08:28:14;;;;;;;1.27;0.52;;;19.10;93.00;;;;;;4996646;28;20046;-88
2022/07/28 08:30:40;;;;;;;2.00;0.80;;;19.50;91.30;;;;;;4996727;28;20042;-88
2022/07/28 08:33:05;;;;;;;1.20;0.60;;;19.60;90.70;;;;;;4986962;28;20116;-87
2022/07/28 08:35:31;;;;;;;1.30;0.70;;;19.60;89.40;;;;;;4996604;28;20095;-86
2022/07/28 08:37:57;;;;;;;2.22;0.90;;;19.70;87.70;;;;;;4996293;28;20034;-86
2022/07/28 08:40:22;;;;;;;2.47;1.02;;;19.70;86.60;;;;;;4996465;28;20045;-87
2022/07/28 08:43:10;;;;;;;3.17;0.85;;;19.70;86.40;;;;;;4987861;28;20038;-88
2022/07/28 08:45:38;;;;;;;2.67;0.60;;;19.80;81.90;;;;;;4970948;28;20038;-88
2022/07/28 08:48:05;;;;;;;2.70;0.80;;;19.90;84.00;;;;;;4976574;28;20034;-87
2022/07/28 08:50:31;;;;;;;1.88;0.70;;;20.20;83.80;;;;;;4973740;28;20050;-87
2022/07/28 08:52:58;;;;;;;3.00;0.80;;;20.30;81.90;;;;;;4960553;28;20092;-86
2022/07/28 08:55:25;;;;;;;1.10;0.60;;;20.60;81.40;;;;;;4976775;28;20497;-87
2022/07/28 08:57:55;;;;;;;0.88;0.50;;;20.90;80.30;;;;;;4970008;28;20034;-87
2022/07/28 09:00:22;;;;;;;2.20;0.80;;;21.10;79.60;;;;;;4965097;28;20045;-87
2022/07/28 09:02:50;;;;;;;4.95;0.75;;;21.30;77.30;;;;;;4971162;28;20037;-87
2022/07/28 09:05:21;;;;;;;1.85;0.60;;;21.30;75.50;;;;;;4975076;28;20045;-85
2022/07/28 09:07:52;;;;;;;0.93;0.57;;;21.10;75.00;;;;;;4995986;28;20581;-86
2022/07/28 09:10:18;;;;;;;2.22;0.68;;;20.90;74.00;;;;;;4995884;28;20034;-86
2022/07/28 09:12:44;;;;;;;1.15;0.45;;;20.70;74.70;;;;;;4988138;28;20049;-86
2022/07/28 09:15:12;;;;;;;1.85;0.60;;;20.70;72.10;;;;;;4973869;28;20100;-87
2022/07/28 09:17:39;;;;;;;1.45;0.55;;;20.80;73.10;;;;;;4995730;28;20083;-87
2022/07/28 09:20:05;;;;;;;2.42;0.50;;;20.70;71.30;;;;;;4996201;28;20408;-87
2022/07/28 09:22:32;;;;;;;1.45;0.60;;;20.60;70.60;;;;;;4989463;28;20040;-87
2022/07/28 09:25:02;;;;;;;1.77;0.60;;;20.40;72.10;;;;;;5006118;28;20042;-88
2022/07/28 09:27:43;;;;;;;0.70;0.60;;;20.30;72.20;;;;;;4995410;28;20045;-87
2022/07/28 09:30:09;;;;;;;2.47;0.70;;;20.20;72.80;;;;;;4990739;28;20184;-88
2022/07/28 09:32:35;;;;;;;1.45;0.52;;;20.10;73.30;;;;;;4971809;28;20061;-87
2022/07/28 09:35:01;;;;;;;1.20;0.60;;;19.90;73.20;;;;;;4990996;28;20493;-88
2022/07/28 09:37:27;;;;;;;1.33;0.40;;;19.80;72.90;;;;;;4991509;28;20045;-88
2022/07/28 09:39:58;;;;;;;2.85;0.60;;;19.90;73.50;;;;;;4992959;28;20038;-89
2022/07/28 09:42:48;;;;;;;4.40;0.80;;;20.10;73.10;;;;;;4976736;28;20047;-89
2022/07/28 09:45:14;;;;;;;2.47;0.88;;;20.70;71.30;;;;;;4976071;28;20050;-88
2022/07/28 09:47:41;;;;;;;0.40;0.32;;;20.90;70.20;;;;;;4988436;28;20037;-88
2022/07/28 09:50:19;;;;;;;1.17;0.50;;;20.90;68.60;;;;;;4973086;28;20045;-89
2022/07/28 09:52:50;;;;;;;3.53;0.63;;;20.60;67.80;;;;;;4995311;28;20046;-87
2022/07/28 09:55:16;;;;;;;1.45;0.60;;;20.20;68.00;;;;;;4987647;28;20125;-87
2022/07/28 09:57:42;;;;;;;0.80;0.50;;;20.20;69.30;;;;;;4990548;28;20046;-88
2022/07/28 10:00:12;;;;;;;1.75;0.60;;;20.50;70.20;;;;;;5005109;28;20036;-89
2022/07/28 10:02:48;;;;;;;1.48;0.60;;;21.00;69.90;;;;;;4978868;28;20038;-89
2022/07/28 10:05:15;;;;;;;1.25;0.50;;;21.50;70.30;;;;;;4979200;28;20048;-89
2022/07/28 10:07:49;;;;;;;1.58;0.50;;;21.80;69.20;;;;;;4960540;28;20041;-89
2022/07/28 10:10:21;;;;;;;0.63;0.60;;;21.80;67.90;;;;;;4984176;28;20041;-88
2022/07/28 10:13:06;;;;;;;1.95;0.50;;;21.40;67.40;;;;;;4993876;23;20045;-88
2022/07/28 10:19:16;;;;;;;3.00;0.68;;;22.00;68.70;;;;;;5003900;28;20161;-89
2022/07/28 10:21:48;;;;;;;1.83;0.52;;;22.20;65.80;;;;;;4976901;28;20042;-88
2022/07/28 10:24:37;;;;;;;0.90;0.40;;;22.00;63.80;;;;;;4975836;28;20493;-89
2022/07/28 10:27:09;;;;;;;1.92;0.70;;;21.50;64.10;;;;;;4984659;28;20042;-89
2022/07/28 10:30:07;;;;;;;1.95;0.70;;;21.00;65.20;;;;;;4985936;28;20041;-87
2022/07/28 10:32:42;;;;;;;1.42;0.82;;;20.70;65.10;;;;;;4967135;28;20054;-88
2022/07/28 10:35:24;;;;;;;1.42;0.90;;;20.40;65.80;;;;;;4980677;28;20070;-88
2022/07/28 10:38:20;;;;;;;1.27;0.55;;;20.30;65.70;;;;;;4987930;28;20049;-89
2022/07/28 10:40:53;;;;;;;3.85;0.80;;;20.40;66.20;;;;;;4979125;28;20125;-90
2022/07/28 10:43:35;;;;;;;2.35;0.70;;;20.30;66.10;;;;;;4995701;28;20049;-88
2022/07/28 10:46:09;;;;;;;2.00;0.70;;;20.20;65.60;;;;;;4985962;28;20097;-89
2022/07/28 10:48:39;;;;;;;1.48;0.50;;;20.20;66.60;;;;;;4986822;28;20101;-87
2022/07/28 10:54:53;;;;;;;1.63;0.60;;;20.80;66.90;;;;;;4993708;28;20043;-88
2022/07/28 10:57:25;;;;;;;1.60;0.77;;;20.80;67.40;;;;;;4983560;28;20100;-87
2022/07/28 11:00:23;;;;;;;1.52;0.50;;;20.80;67.00;;;;;;4978985;28;20046;-90
2022/07/28 11:03:00;;;;;;;1.88;0.60;;;20.80;65.00;;;;;;4979121;28;20061;-87
2022/07/28 11:05:46;;;;;;;1.27;0.50;;;20.70;66.20;;;;;;4989627;28;20038;-88
2022/07/28 11:08:27;;;;;;;1.65;0.68;;;20.70;66.70;;;;;;4994679;28;20497;-89
2022/07/28 11:10:54;;;;;;;1.95;0.50;;;20.90;65.80;;;;;;4978927;28;20046;-90
2022/07/28 11:13:42;;;;;;;1.95;0.60;;;21.10;65.30;;;;;;4981407;28;20077;-88
2022/07/28 11:16:23;;;;;;;1.67;0.60;;;21.30;64.70;;;;;;5008132;28;20096;-89
2022/07/28 11:19:20;;;;;;;1.17;0.50;;;21.40;63.80;;;;;;4998586;28;20547;-88
2022/07/28 11:22:29;;;;;;;2.25;0.60;;;21.50;63.40;;;;;;4997713;28;20034;-88
2022/07/28 11:25:01;;;;;;;1.50;0.52;;;21.60;64.40;;;;;;4989040;28;20100;-89
2022/07/28 11:27:42;;;;;;;2.97;0.60;;;21.80;64.10;;;;;;4981666;28;20046;-88
2022/07/28 11:30:12;;;;;;;2.40;0.50;;;21.80;64.40;;;;;;4978299;28;20073;-88
2022/07/28 11:33:18;;;;;;;2.00;0.68;;;21.80;64.50;;;;;;4995517;28;20093;-88
2022/07/28 11:35:47;;;;;;;0.88;0.40;;;22.00;64.40;;;;;;4994392;28;20128;-87
2022/07/28 11:38:13;;;;;;;2.28;0.60;;;22.10;62.80;;;;;;4978214;28;20050;-89
2022/07/28 11:40:44;;;;;;;2.20;0.75;;;22.00;61.90;;;;;;4978063;28;20039;-86
2022/07/28 11:43:22;;;;;;;2.10;0.70;;;21.80;62.20;;;;;;4979138;28;20491;-87
2022/07/28 11:46:01;;;;;;;1.45;0.68;;;21.60;62.70;;;;;;4987065;28;20033;-87
2022/07/28 11:48:30;;;;;;;3.10;0.50;;;21.70;62.90;;;;;;4977881;28;20038;-87
2022/07/28 11:51:09;;;;;;;1.98;0.70;;;21.80;61.00;;;;;;4978017;28;20129;-88
2022/07/28 11:53:51;;;;;;;1.35;0.60;;;21.60;60.50;;;;;;4989772;28;20356;-88
2022/07/28 11:56:36;;;;;;;2.73;0.60;;;21.50;61.50;;;;;;4992360;28;20065;-89
2022/07/28 11:59:09;;;;;;;4.47;0.60;;;21.40;62.30;;;;;;5013593;28;20030;-87
2022/07/28 12:01:35;;;;;;;0.95;0.63;;;21.30;62.60;;;;;;4997464;28;20049;-87
2022/07/28 12:04:23;;;;;;;0.93;0.50;;;21.30;63.50;;;;;;4988004;28;20045;-88
2022/07/28 12:06:51;;;;;;;0.90;0.50;;;21.50;63.60;;;;;;4978116;28;20085;-87
2022/07/28 12:09:28;;;;;;;1.83;0.55;;;21.90;61.80;;;;;;4962002;28;20065;-88
2022/07/28 12:11:54;;;;;;;0.98;0.52;;;21.90;60.80;;;;;;4977390;28;20532;-87
2022/07/28 12:14:41;;;;;;;1.40;0.52;;;21.90;61.40;;;;;;4986510;28;20038;-88
2022/07/28 12:17:32;;;;;;;3.53;0.70;;;22.10;62.70;;;;;;4991154;28;20084;-89
2022/07/28 12:20:15;;;;;;;1.92;0.52;;;22.90;61.50;;;;;;4992298;28;20036;-88
2022/07/28 12:23:03;;;;;;;3.30;0.55;;;23.50;60.00;;;;;;4985915;28;20030;-90
2022/07/28 12:25:45;;;;;;;2.88;0.77;;;24.10;59.00;;;;;;4980219;28;20080;-87
2022/07/28 12:28:21;;;;;;;1.35;0.60;;;24.50;58.60;;;;;;4988067;28;20396;-89
2022/07/28 12:30:50;;;;;;;1.27;0.57;;;24.90;57.30;;;;;;4978114;28;20038;-87
2022/07/28 12:33:17;;;;;;;0.65;0.50;;;25.10;55.00;;;;;;4983732;28;20337;-89
2022/07/28 12:36:03;;;;;;;1.13;0.50;;;25.10;54.80;;;;;;4987711;28;20043;-89
2022/07/28 12:38:31;;;;;;;0.93;0.50;;;24.60;55.40;;;;;;5000922;28;20042;-87
2022/07/28 12:40:57;;;;;;;0.90;0.52;;;24.30;55.70;;;;;;4976877;28;20177;-89
2022/07/28 12:43:29;;;;;;;1.45;0.50;;;24.40;57.00;;;;;;4979026;28;20513;-87
2022/07/28 12:45:55;;;;;;;0.30;0.30;;;24.40;55.50;;;;;;5001257;28;20046;-89
2022/07/28 12:48:21;;;;;;;0.47;0.40;;;24.10;55.60;;;;;;4976569;28;20049;-88
2022/07/28 12:50:55;;;;;;;1.13;0.60;;;23.80;55.70;;;;;;4976894;28;20053;-88
2022/07/28 12:53:22;;;;;;;0.88;0.75;;;23.60;56.10;;;;;;4977708;28;20046;-89
2022/07/28 12:55:48;;;;;;;2.40;0.60;;;23.70;57.60;;;;;;4987319;28;20051;-87
2022/07/28 12:58:24;;;;;;;1.73;0.60;;;23.90;55.10;;;;;;4989163;28;20037;-88
2022/07/28 13:00:53;;;;;;;2.97;0.60;;;23.70;55.60;;;;;;5001256;28;20054;-89
2022/07/28 13:03:20;;;;;;;0.85;0.40;;;23.60;55.70;;;;;;4984948;28;20101;-89
2022/07/28 13:06:07;;;;;;;1.83;0.52;;;23.50;56.20;;;;;;4977009;28;20120;-88
2022/07/28 13:08:43;;;;;;;2.55;0.70;;;23.50;55.50;;;;;;4989064;28;20217;-88
2022/07/28 13:11:16;;;;;;;2.03;0.70;;;23.50;56.50;;;;;;4998856;22;20506;-88
2022/07/28 13:14:00;;;;;;;2.10;0.52;;;23.60;55.80;;;;;;5015479;28;20037;-87
2022/07/28 13:16:35;;;;;;;1.20;0.50;;;23.70;54.70;;;;;;5015361;28;20064;-88
2022/07/28 13:19:28;;;;;;;2.33;0.52;;;23.60;55.50;;;;;;5005874;28;20176;-90
2022/07/28 13:22:00;;;;;;;2.40;0.60;;;23.50;55.50;;;;;;5041238;28;20037;-88
2022/07/28 13:24:31;;;;;;;1.48;0.50;;;23.40;56.30;;;;;;5016442;28;20102;-88
2022/07/28 13:26:58;;;;;;;1.15;0.60;;;23.40;56.30;;;;;;5010096;28;20045;-86
2022/07/28 13:29:34;;;;;;;1.10;0.60;;;23.50;57.10;;;;;;5027387;28;20041;-87
2022/07/28 13:32:05;;;;;;;3.67;0.70;;;23.70;56.20;;;;;;4983718;28;20518;-87
2022/07/28 13:34:31;;;;;;;1.13;0.50;;;23.60;55.80;;;;;;4995853;28;20044;-88
2022/07/28 13:37:05;;;;;;;1.92;0.47;;;23.30;55.70;;;;;;5006815;28;20416;-88
2022/07/28 13:39:52;;;;;;;1.77;0.55;;;23.10;56.50;;;;;;5009875;28;20033;-88
2022/07/28 13:42:18;;;;;;;2.70;0.75;;;23.10;57.80;;;;;;5018502;28;20119;-87
2022/07/28 13:44:44;;;;;;;2.72;0.50;;;23.30;56.80;;;;;;5008807;28;20036;-89
2022/07/28 13:47:21;;;;;;;3.10;0.70;;;23.60;56.30;;;;;;5012225;28;20041;-88
2022/07/28 13:49:46;;;;;;;0.98;0.57;;;23.90;56.30;;;;;;5011303;28;20040;-88
2022/07/28 13:52:16;;;;;;;2.60;0.68;;;24.10;56.00;;;;;;5006257;28;20399;-86
2022/07/28 13:54:41;;;;;;;3.53;0.70;;;24.10;55.20;;;;;;5018139;28;20051;-87
2022/07/28 13:57:13;;;;;;;1.80;0.60;;;24.00;55.30;;;;;;5018201;28;20041;-90
2022/07/28 13:59:40;;;;;;;1.60;0.50;;;24.00;55.20;;;;;;5017964;28;20032;-89
2022/07/28 14:02:07;;;;;;;1.23;0.60;;;23.70;54.90;;;;;;5006467;28;20136;-88
2022/07/28 14:04:36;;;;;;;2.20;0.80;;;23.30;55.20;;;;;;4998230;28;20065;-88
2022/07/28 14:07:07;;;;;;;1.15;0.40;;;22.80;55.90;;;;;;4997517;28;20037;-87
2022/07/28 14:09:36;;;;;;;1.92;0.60;;;22.50;56.90;;;;;;5005306;28;20044;-88
2022/07/28 14:12:08;;;;;;;1.55;0.60;;;22.80;57.10;;;;;;5004888;28;20056;-87